sensor_id;sensor_type;location;lat;lon;timestamp;temperature;humidity
32476;DHT22;18929;48.008;10.882;2024-02-16T00:02:09;8.70;99.90
32476;DHT22;18929;48.008;10.882;2024-02-16T00:04:36;8.10;99.90
32476;DHT22;18929;48.008;10.882;2024-02-16T00:07:03;7.80;99.90
32476;DHT22;18929;48.008;10.882;2024-02-16T00:09:30;8.30;99.90
32476;DHT22;18929;48.008;10.882;2024-02-16T00:11:58;8.40;99.90
32476;DHT22;18929;48.008;10.882;2024-02-16T00:14:25;8.30;99.90
32476;DHT22;18929;48.008;10.882;2024-02-16T00:16:54;8.20;99.90
32476;DHT22;18929;48.008;10.882;2024-02-16T00:19:21;8.50;99.90
32476;DHT22;18929;48.008;10.882;2024-02-16T00:21:47;8.60;99.90
32476;DHT22;18929;48.008;10.882;2024-02-16T00:24:16;8.70;99.90
32476;DHT22;18929;48.008;10.882;2024-02-16T00:26:43;8.60;99.90
32476;DHT22;18929;48.008;10.882;2024-02-16T00:29:10;8.80;99.90
32476;DHT22;18929;48.008;10.882;2024-02-16T00:31:37;8.80;99.90
32476;DHT22;18929;48.008;10.882;2024-02-16T00:34:06;8.90;99.90
32476;DHT22;18929;48.008;10.882;2024-02-16T00:36:33;9.00;99.90
32476;DHT22;18929;48.008;10.882;2024-02-16T00:39:00;8.90;99.90
32476;DHT22;18929;48.008;10.882;2024-02-16T00:41:27;8.90;99.90
32476;DHT22;18929;48.008;10.882;2024-02-16T00:43:53;8.60;99.90
32476;DHT22;18929;48.008;10.882;2024-02-16T00:48:58;8.50;99.90
32476;DHT22;18929;48.008;10.882;2024-02-16T00:51:26;8.40;99.90
32476;DHT22;18929;48.008;10.882;2024-02-16T00:53:53;8.30;99.90
32476;DHT22;18929;48.008;10.882;2024-02-16T00:56:20;8.40;99.90
32476;DHT22;18929;48.008;10.882;2024-02-16T00:58:47;8.50;99.90
32476;DHT22;18929;48.008;10.882;2024-02-16T01:01:14;8.40;99.90
32476;DHT22;18929;48.008;10.882;2024-02-16T01:03:41;8.30;99.90
32476;DHT22;18929;48.008;10.882;2024-02-16T01:06:08;8.30;99.90
32476;DHT22;18929;48.008;10.882;2024-02-16T01:08:37;8.60;99.90
32476;DHT22;18929;48.008;10.882;2024-02-16T01:11:04;8.60;99.90
32476;DHT22;18929;48.008;10.882;2024-02-16T01:13:30;8.70;99.90
32476;DHT22;18929;48.008;10.882;2024-02-16T01:15:58;8.80;99.90
32476;DHT22;18929;48.008;10.882;2024-02-16T01:18:25;8.80;99.90
32476;DHT22;18929;48.008;10.882;2024-02-16T01:20:52;8.60;99.90
32476;DHT22;18929;48.008;10.882;2024-02-16T01:23:19;8.30;99.90
32476;DHT22;18929;48.008;10.882;2024-02-16T01:25:47;8.30;99.90
32476;DHT22;18929;48.008;10.882;2024-02-16T01:28:14;8.50;99.90
32476;DHT22;18929;48.008;10.882;2024-02-16T01:30:41;8.50;99.90
32476;DHT22;18929;48.008;10.882;2024-02-16T01:33:08;8.30;99.90
32476;DHT22;18929;48.008;10.882;2024-02-16T01:35:35;8.60;99.90
32476;DHT22;18929;48.008;10.882;2024-02-16T01:38:02;8.70;99.90
32476;DHT22;18929;48.008;10.882;2024-02-16T01:40:29;8.60;99.90
32476;DHT22;18929;48.008;10.882;2024-02-16T01:42:57;8.60;99.90
32476;DHT22;18929;48.008;10.882;2024-02-16T01:45:24;8.50;99.90
32476;DHT22;18929;48.008;10.882;2024-02-16T01:47:51;8.50;99.90
32476;DHT22;18929;48.008;10.882;2024-02-16T01:50:18;8.60;99.90
32476;DHT22;18929;48.008;10.882;2024-02-16T01:52:46;8.50;99.90
32476;DHT22;18929;48.008;10.882;2024-02-16T01:55:13;8.40;99.90
32476;DHT22;18929;48.008;10.882;2024-02-16T01:57:40;8.50;99.90
32476;DHT22;18929;48.008;10.882;2024-02-16T02:00:11;8.60;99.90
32476;DHT22;18929;48.008;10.882;2024-02-16T02:02:40;8.20;99.90
32476;DHT22;18929;48.008;10.882;2024-02-16T02:05:07;8.30;99.90
32476;DHT22;18929;48.008;10.882;2024-02-16T02:07:34;8.40;99.90
32476;DHT22;18929;48.008;10.882;2024-02-16T02:10:01;8.30;99.90
32476;DHT22;18929;48.008;10.882;2024-02-16T02:12:28;8.40;99.90
32476;DHT22;18929;48.008;10.882;2024-02-16T02:14:55;8.40;99.90
32476;DHT22;18929;48.008;10.882;2024-02-16T02:17:24;7.90;99.90
32476;DHT22;18929;48.008;10.882;2024-02-16T02:19:51;6.80;99.90
32476;DHT22;18929;48.008;10.882;2024-02-16T02:22:19;7.30;99.90
32476;DHT22;18929;48.008;10.882;2024-02-16T02:24:47;7.40;99.90
32476;DHT22;18929;48.008;10.882;2024-02-16T02:27:14;7.80;99.90
32476;DHT22;18929;48.008;10.882;2024-02-16T02:29:42;8.10;99.90
32476;DHT22;18929;48.008;10.882;2024-02-16T02:32:09;8.20;99.90
32476;DHT22;18929;48.008;10.882;2024-02-16T02:34:36;8.10;99.90
32476;DHT22;18929;48.008;10.882;2024-02-16T02:37:03;8.10;99.90
32476;DHT22;18929;48.008;10.882;2024-02-16T02:39:32;8.30;99.90
32476;DHT22;18929;48.008;10.882;2024-02-16T02:41:59;8.30;99.90
32476;DHT22;18929;48.008;10.882;2024-02-16T02:44:25;8.30;99.90
32476;DHT22;18929;48.008;10.882;2024-02-16T02:46:52;8.50;99.90
32476;DHT22;18929;48.008;10.882;2024-02-16T02:49:19;8.50;99.90
32476;DHT22;18929;48.008;10.882;2024-02-16T02:51:46;8.70;99.90
32476;DHT22;18929;48.008;10.882;2024-02-16T02:54:13;8.60;99.90
32476;DHT22;18929;48.008;10.882;2024-02-16T02:56:41;8.40;99.90
32476;DHT22;18929;48.008;10.882;2024-02-16T02:59:08;8.10;99.90
32476;DHT22;18929;48.008;10.882;2024-02-16T03:01:36;8.30;99.90
32476;DHT22;18929;48.008;10.882;2024-02-16T03:04:03;8.30;99.90
32476;DHT22;18929;48.008;10.882;2024-02-16T03:06:30;8.20;99.90
32476;DHT22;18929;48.008;10.882;2024-02-16T03:08:56;8.20;99.90
32476;DHT22;18929;48.008;10.882;2024-02-16T03:11:23;8.30;99.90
32476;DHT22;18929;48.008;10.882;2024-02-16T03:13:52;8.30;99.90
32476;DHT22;18929;48.008;10.882;2024-02-16T03:16:19;8.30;99.90
32476;DHT22;18929;48.008;10.882;2024-02-16T03:18:46;8.30;99.90
32476;DHT22;18929;48.008;10.882;2024-02-16T03:23:58;8.10;99.90
32476;DHT22;18929;48.008;10.882;2024-02-16T03:26:25;8.10;99.90
32476;DHT22;18929;48.008;10.882;2024-02-16T03:28:53;8.00;99.90
32476;DHT22;18929;48.008;10.882;2024-02-16T03:31:21;7.90;99.90
32476;DHT22;18929;48.008;10.882;2024-02-16T03:33:48;8.00;99.90
32476;DHT22;18929;48.008;10.882;2024-02-16T03:36:17;7.90;99.90
32476;DHT22;18929;48.008;10.882;2024-02-16T03:38:44;8.10;99.90
32476;DHT22;18929;48.008;10.882;2024-02-16T03:41:12;8.10;99.90
32476;DHT22;18929;48.008;10.882;2024-02-16T03:43:39;8.30;99.90
32476;DHT22;18929;48.008;10.882;2024-02-16T03:46:07;8.30;99.90
32476;DHT22;18929;48.008;10.882;2024-02-16T03:48:34;8.40;99.90
32476;DHT22;18929;48.008;10.882;2024-02-16T03:51:01;8.60;99.90
32476;DHT22;18929;48.008;10.882;2024-02-16T03:53:28;8.50;99.90
32476;DHT22;18929;48.008;10.882;2024-02-16T03:55:55;8.50;99.90
32476;DHT22;18929;48.008;10.882;2024-02-16T03:58:22;8.40;99.90
32476;DHT22;18929;48.008;10.882;2024-02-16T04:00:49;8.50;99.90
32476;DHT22;18929;48.008;10.882;2024-02-16T04:03:17;8.40;99.90
32476;DHT22;18929;48.008;10.882;2024-02-16T04:05:44;8.40;99.90
32476;DHT22;18929;48.008;10.882;2024-02-16T04:08:11;8.50;99.90
32476;DHT22;18929;48.008;10.882;2024-02-16T04:10:45;8.60;99.90
32476;DHT22;18929;48.008;10.882;2024-02-16T04:13:12;8.60;99.90
32476;DHT22;18929;48.008;10.882;2024-02-16T04:15:38;8.50;99.90
32476;DHT22;18929;48.008;10.882;2024-02-16T04:18:05;8.20;99.90
32476;DHT22;18929;48.008;10.882;2024-02-16T04:20:34;8.30;99.90
32476;DHT22;18929;48.008;10.882;2024-02-16T04:23:00;8.10;99.90
32476;DHT22;18929;48.008;10.882;2024-02-16T04:25:28;8.30;99.90
32476;DHT22;18929;48.008;10.882;2024-02-16T04:27:55;8.50;99.90
32476;DHT22;18929;48.008;10.882;2024-02-16T04:30:22;8.50;99.90
32476;DHT22;18929;48.008;10.882;2024-02-16T04:32:49;8.50;99.90
32476;DHT22;18929;48.008;10.882;2024-02-16T04:35:15;8.40;99.90
32476;DHT22;18929;48.008;10.882;2024-02-16T04:37:44;8.30;99.90
32476;DHT22;18929;48.008;10.882;2024-02-16T04:40:11;8.20;99.90
32476;DHT22;18929;48.008;10.882;2024-02-16T04:42:38;8.50;99.90
32476;DHT22;18929;48.008;10.882;2024-02-16T04:45:07;8.60;99.90
32476;DHT22;18929;48.008;10.882;2024-02-16T04:47:34;8.70;99.90
32476;DHT22;18929;48.008;10.882;2024-02-16T04:50:01;8.70;99.90
32476;DHT22;18929;48.008;10.882;2024-02-16T04:52:28;8.50;99.90
32476;DHT22;18929;48.008;10.882;2024-02-16T04:54:56;8.30;99.90
32476;DHT22;18929;48.008;10.882;2024-02-16T04:57:23;8.20;99.90
32476;DHT22;18929;48.008;10.882;2024-02-16T04:59:50;8.30;99.90
32476;DHT22;18929;48.008;10.882;2024-02-16T05:02:17;8.40;99.90
32476;DHT22;18929;48.008;10.882;2024-02-16T05:04:44;8.40;99.90
32476;DHT22;18929;48.008;10.882;2024-02-16T05:07:11;8.50;99.90
32476;DHT22;18929;48.008;10.882;2024-02-16T05:09:38;8.60;99.90
32476;DHT22;18929;48.008;10.882;2024-02-16T05:12:07;8.50;99.90
32476;DHT22;18929;48.008;10.882;2024-02-16T05:14:35;8.50;99.90
32476;DHT22;18929;48.008;10.882;2024-02-16T05:17:02;8.50;99.90
32476;DHT22;18929;48.008;10.882;2024-02-16T05:19:31;8.50;99.90
32476;DHT22;18929;48.008;10.882;2024-02-16T05:21:58;8.50;99.90
32476;DHT22;18929;48.008;10.882;2024-02-16T05:24:25;8.60;99.90
32476;DHT22;18929;48.008;10.882;2024-02-16T05:26:52;8.50;99.90
32476;DHT22;18929;48.008;10.882;2024-02-16T05:29:21;8.60;99.90
32476;DHT22;18929;48.008;10.882;2024-02-16T05:31:50;8.60;99.90
32476;DHT22;18929;48.008;10.882;2024-02-16T05:34:17;8.50;99.90
32476;DHT22;18929;48.008;10.882;2024-02-16T05:36:44;8.60;99.90
32476;DHT22;18929;48.008;10.882;2024-02-16T05:39:11;8.60;99.90
32476;DHT22;18929;48.008;10.882;2024-02-16T05:41:53;8.70;99.90
32476;DHT22;18929;48.008;10.882;2024-02-16T05:44:21;8.60;99.90
32476;DHT22;18929;48.008;10.882;2024-02-16T05:46:48;8.50;99.90
32476;DHT22;18929;48.008;10.882;2024-02-16T05:49:15;8.50;99.90
32476;DHT22;18929;48.008;10.882;2024-02-16T05:51:42;8.30;99.90
32476;DHT22;18929;48.008;10.882;2024-02-16T05:54:25;8.20;99.90
32476;DHT22;18929;48.008;10.882;2024-02-16T05:56:53;8.20;99.90
32476;DHT22;18929;48.008;10.882;2024-02-16T05:59:21;8.10;99.90
32476;DHT22;18929;48.008;10.882;2024-02-16T06:01:50;8.20;99.90
32476;DHT22;18929;48.008;10.882;2024-02-16T06:04:17;8.30;99.90
32476;DHT22;18929;48.008;10.882;2024-02-16T06:06:44;8.30;99.90
32476;DHT22;18929;48.008;10.882;2024-02-16T06:09:11;8.30;99.90
32476;DHT22;18929;48.008;10.882;2024-02-16T06:11:37;8.00;99.90
32476;DHT22;18929;48.008;10.882;2024-02-16T06:14:05;8.20;99.90
32476;DHT22;18929;48.008;10.882;2024-02-16T06:16:33;8.20;99.90
32476;DHT22;18929;48.008;10.882;2024-02-16T06:19:00;8.00;99.90
32476;DHT22;18929;48.008;10.882;2024-02-16T06:21:26;8.10;99.90
32476;DHT22;18929;48.008;10.882;2024-02-16T06:23:54;8.10;99.90
32476;DHT22;18929;48.008;10.882;2024-02-16T06:26:20;8.00;99.90
32476;DHT22;18929;48.008;10.882;2024-02-16T06:28:47;8.00;99.90
32476;DHT22;18929;48.008;10.882;2024-02-16T06:31:14;7.80;99.90
32476;DHT22;18929;48.008;10.882;2024-02-16T06:36:14;7.80;99.90
32476;DHT22;18929;48.008;10.882;2024-02-16T06:38:41;7.80;99.90
32476;DHT22;18929;48.008;10.882;2024-02-16T06:41:08;7.50;99.90
32476;DHT22;18929;48.008;10.882;2024-02-16T06:43:35;7.70;99.90
32476;DHT22;18929;48.008;10.882;2024-02-16T06:46:02;7.70;99.90
32476;DHT22;18929;48.008;10.882;2024-02-16T06:48:30;7.80;99.90
32476;DHT22;18929;48.008;10.882;2024-02-16T06:50:57;7.80;99.90
32476;DHT22;18929;48.008;10.882;2024-02-16T06:53:25;7.80;99.90
32476;DHT22;18929;48.008;10.882;2024-02-16T06:55:52;7.70;99.90
32476;DHT22;18929;48.008;10.882;2024-02-16T06:58:20;7.60;99.90
32476;DHT22;18929;48.008;10.882;2024-02-16T07:00:47;7.70;99.90
32476;DHT22;18929;48.008;10.882;2024-02-16T07:03:14;7.80;99.90
32476;DHT22;18929;48.008;10.882;2024-02-16T07:05:41;8.00;99.90
32476;DHT22;18929;48.008;10.882;2024-02-16T07:08:07;8.10;99.90
32476;DHT22;18929;48.008;10.882;2024-02-16T07:10:36;8.10;99.90
32476;DHT22;18929;48.008;10.882;2024-02-16T07:13:02;8.10;99.90
32476;DHT22;18929;48.008;10.882;2024-02-16T07:15:30;8.00;99.90
32476;DHT22;18929;48.008;10.882;2024-02-16T07:17:57;7.90;99.90
32476;DHT22;18929;48.008;10.882;2024-02-16T07:20:25;8.10;99.90
32476;DHT22;18929;48.008;10.882;2024-02-16T07:23:00;8.20;99.90
32476;DHT22;18929;48.008;10.882;2024-02-16T07:25:27;8.30;99.90
32476;DHT22;18929;48.008;10.882;2024-02-16T07:27:55;8.40;99.90
32476;DHT22;18929;48.008;10.882;2024-02-16T07:30:22;8.40;99.90
32476;DHT22;18929;48.008;10.882;2024-02-16T07:32:49;8.30;99.90
32476;DHT22;18929;48.008;10.882;2024-02-16T07:35:18;8.10;99.90
32476;DHT22;18929;48.008;10.882;2024-02-16T07:37:45;8.20;99.90
32476;DHT22;18929;48.008;10.882;2024-02-16T07:40:12;8.30;99.90
32476;DHT22;18929;48.008;10.882;2024-02-16T07:42:38;8.40;99.90
32476;DHT22;18929;48.008;10.882;2024-02-16T07:45:09;8.40;99.90
32476;DHT22;18929;48.008;10.882;2024-02-16T07:47:37;8.50;99.90
32476;DHT22;18929;48.008;10.882;2024-02-16T07:50:04;8.40;99.90
32476;DHT22;18929;48.008;10.882;2024-02-16T07:52:32;8.40;99.90
32476;DHT22;18929;48.008;10.882;2024-02-16T07:54:59;8.30;99.90
32476;DHT22;18929;48.008;10.882;2024-02-16T07:57:26;8.50;99.90
32476;DHT22;18929;48.008;10.882;2024-02-16T07:59:53;8.60;99.90
32476;DHT22;18929;48.008;10.882;2024-02-16T08:02:21;8.50;99.90
32476;DHT22;18929;48.008;10.882;2024-02-16T08:04:48;8.60;99.90
32476;DHT22;18929;48.008;10.882;2024-02-16T08:07:15;8.60;99.90
32476;DHT22;18929;48.008;10.882;2024-02-16T08:09:43;8.50;99.90
32476;DHT22;18929;48.008;10.882;2024-02-16T08:12:10;8.60;99.90
32476;DHT22;18929;48.008;10.882;2024-02-16T08:14:44;8.60;99.90
32476;DHT22;18929;48.008;10.882;2024-02-16T08:17:11;8.60;99.90
32476;DHT22;18929;48.008;10.882;2024-02-16T08:19:40;8.60;99.90
32476;DHT22;18929;48.008;10.882;2024-02-16T08:22:07;8.50;99.90
32476;DHT22;18929;48.008;10.882;2024-02-16T08:24:34;8.50;99.90
32476;DHT22;18929;48.008;10.882;2024-02-16T08:27:01;8.50;99.90
32476;DHT22;18929;48.008;10.882;2024-02-16T08:29:28;8.40;99.90
32476;DHT22;18929;48.008;10.882;2024-02-16T08:31:55;8.40;99.90
32476;DHT22;18929;48.008;10.882;2024-02-16T08:34:22;8.70;99.90
32476;DHT22;18929;48.008;10.882;2024-02-16T08:36:54;8.80;99.90
32476;DHT22;18929;48.008;10.882;2024-02-16T08:39:20;8.80;99.90
32476;DHT22;18929;48.008;10.882;2024-02-16T08:41:50;9.00;99.90
32476;DHT22;18929;48.008;10.882;2024-02-16T08:44:17;9.00;99.90
32476;DHT22;18929;48.008;10.882;2024-02-16T08:46:44;8.80;99.90
32476;DHT22;18929;48.008;10.882;2024-02-16T08:49:11;8.80;99.90
32476;DHT22;18929;48.008;10.882;2024-02-16T08:51:38;9.10;99.90
32476;DHT22;18929;48.008;10.882;2024-02-16T08:54:06;9.00;99.90
32476;DHT22;18929;48.008;10.882;2024-02-16T08:56:33;9.20;99.90
32476;DHT22;18929;48.008;10.882;2024-02-16T08:59:01;9.40;99.90
32476;DHT22;18929;48.008;10.882;2024-02-16T09:01:35;9.50;99.90
32476;DHT22;18929;48.008;10.882;2024-02-16T09:04:02;9.40;99.90
32476;DHT22;18929;48.008;10.882;2024-02-16T09:06:30;9.40;99.90
32476;DHT22;18929;48.008;10.882;2024-02-16T09:09:00;9.50;99.90
32476;DHT22;18929;48.008;10.882;2024-02-16T09:11:28;9.60;99.90
32476;DHT22;18929;48.008;10.882;2024-02-16T09:13:55;9.90;99.90
32476;DHT22;18929;48.008;10.882;2024-02-16T09:16:22;10.00;99.90
32476;DHT22;18929;48.008;10.882;2024-02-16T09:18:49;10.10;99.90
32476;DHT22;18929;48.008;10.882;2024-02-16T09:21:15;10.30;99.90
32476;DHT22;18929;48.008;10.882;2024-02-16T09:23:42;10.40;99.90
32476;DHT22;18929;48.008;10.882;2024-02-16T09:26:12;10.50;99.90
32476;DHT22;18929;48.008;10.882;2024-02-16T09:28:40;10.60;99.90
32476;DHT22;18929;48.008;10.882;2024-02-16T09:31:07;10.50;99.90
32476;DHT22;18929;48.008;10.882;2024-02-16T09:33:35;10.80;99.90
32476;DHT22;18929;48.008;10.882;2024-02-16T09:36:01;10.90;99.90
32476;DHT22;18929;48.008;10.882;2024-02-16T09:38:30;11.10;99.90
32476;DHT22;18929;48.008;10.882;2024-02-16T09:40:57;11.00;99.90
32476;DHT22;18929;48.008;10.882;2024-02-16T09:43:25;11.20;99.90
32476;DHT22;18929;48.008;10.882;2024-02-16T09:45:55;11.30;99.90
32476;DHT22;18929;48.008;10.882;2024-02-16T09:48:22;11.20;99.90
32476;DHT22;18929;48.008;10.882;2024-02-16T09:50:50;11.50;99.90
32476;DHT22;18929;48.008;10.882;2024-02-16T09:53:17;11.70;99.90
32476;DHT22;18929;48.008;10.882;2024-02-16T09:55:47;12.00;99.90
32476;DHT22;18929;48.008;10.882;2024-02-16T09:58:14;12.30;99.90
32476;DHT22;18929;48.008;10.882;2024-02-16T10:00:47;12.40;99.90
32476;DHT22;18929;48.008;10.882;2024-02-16T10:03:22;12.70;99.90
32476;DHT22;18929;48.008;10.882;2024-02-16T10:05:49;12.60;99.90
32476;DHT22;18929;48.008;10.882;2024-02-16T10:08:16;12.10;99.90
32476;DHT22;18929;48.008;10.882;2024-02-16T10:10:43;12.00;99.90
32476;DHT22;18929;48.008;10.882;2024-02-16T10:13:10;10.90;99.90
32476;DHT22;18929;48.008;10.882;2024-02-16T10:15:37;11.90;99.90
32476;DHT22;18929;48.008;10.882;2024-02-16T10:18:05;11.50;99.90
32476;DHT22;18929;48.008;10.882;2024-02-16T10:20:33;12.80;99.90
32476;DHT22;18929;48.008;10.882;2024-02-16T10:23:04;12.80;99.90
32476;DHT22;18929;48.008;10.882;2024-02-16T10:25:31;13.10;99.90
32476;DHT22;18929;48.008;10.882;2024-02-16T10:27:58;13.40;99.90
32476;DHT22;18929;48.008;10.882;2024-02-16T10:30:26;12.90;99.90
32476;DHT22;18929;48.008;10.882;2024-02-16T10:35:26;13.30;99.90
32476;DHT22;18929;48.008;10.882;2024-02-16T10:37:56;11.10;99.90
32476;DHT22;18929;48.008;10.882;2024-02-16T10:40:23;12.10;99.90
32476;DHT22;18929;48.008;10.882;2024-02-16T10:42:50;12.30;99.90
32476;DHT22;18929;48.008;10.882;2024-02-16T10:45:17;12.00;99.90
32476;DHT22;18929;48.008;10.882;2024-02-16T10:47:44;12.00;99.90
32476;DHT22;18929;48.008;10.882;2024-02-16T10:50:11;13.40;99.90
32476;DHT22;18929;48.008;10.882;2024-02-16T10:52:39;13.40;99.90
32476;DHT22;18929;48.008;10.882;2024-02-16T10:55:09;13.40;99.90
32476;DHT22;18929;48.008;10.882;2024-02-16T10:57:38;13.60;99.90
32476;DHT22;18929;48.008;10.882;2024-02-16T11:00:07;13.50;99.90
32476;DHT22;18929;48.008;10.882;2024-02-16T11:05:17;13.00;99.90
32476;DHT22;18929;48.008;10.882;2024-02-16T11:07:44;12.40;99.90
32476;DHT22;18929;48.008;10.882;2024-02-16T11:10:13;12.90;99.90
32476;DHT22;18929;48.008;10.882;2024-02-16T11:12:42;11.90;99.90
32476;DHT22;18929;48.008;10.882;2024-02-16T11:15:12;12.10;99.90
32476;DHT22;18929;48.008;10.882;2024-02-16T11:17:39;11.30;99.90
32476;DHT22;18929;48.008;10.882;2024-02-16T11:20:07;12.70;99.90
32476;DHT22;18929;48.008;10.882;2024-02-16T11:22:36;12.90;99.90
32476;DHT22;18929;48.008;10.882;2024-02-16T11:25:04;11.50;99.90
32476;DHT22;18929;48.008;10.882;2024-02-16T11:27:33;12.10;99.90
32476;DHT22;18929;48.008;10.882;2024-02-16T11:30:01;12.40;99.90
32476;DHT22;18929;48.008;10.882;2024-02-16T11:32:32;11.80;99.90
32476;DHT22;18929;48.008;10.882;2024-02-16T11:35:04;11.90;99.90
32476;DHT22;18929;48.008;10.882;2024-02-16T11:37:31;11.50;99.90
32476;DHT22;18929;48.008;10.882;2024-02-16T11:39:59;11.90;99.90
32476;DHT22;18929;48.008;10.882;2024-02-16T11:42:26;12.70;99.90
32476;DHT22;18929;48.008;10.882;2024-02-16T11:44:55;12.60;99.90
32476;DHT22;18929;48.008;10.882;2024-02-16T11:47:23;14.10;99.90
32476;DHT22;18929;48.008;10.882;2024-02-16T11:49:59;13.10;99.90
32476;DHT22;18929;48.008;10.882;2024-02-16T11:52:26;11.60;99.90
32476;DHT22;18929;48.008;10.882;2024-02-16T11:54:53;12.90;99.90
32476;DHT22;18929;48.008;10.882;2024-02-16T11:57:22;11.80;99.90
32476;DHT22;18929;48.008;10.882;2024-02-16T11:59:49;11.60;99.90
32476;DHT22;18929;48.008;10.882;2024-02-16T12:02:19;13.00;99.90
32476;DHT22;18929;48.008;10.882;2024-02-16T12:04:46;12.60;99.90
32476;DHT22;18929;48.008;10.882;2024-02-16T12:07:13;12.90;99.90
32476;DHT22;18929;48.008;10.882;2024-02-16T12:09:40;13.10;99.90
32476;DHT22;18929;48.008;10.882;2024-02-16T12:12:07;13.70;99.90
32476;DHT22;18929;48.008;10.882;2024-02-16T12:14:34;12.80;99.90
32476;DHT22;18929;48.008;10.882;2024-02-16T12:17:03;13.10;99.90
32476;DHT22;18929;48.008;10.882;2024-02-16T12:19:31;14.00;99.90
32476;DHT22;18929;48.008;10.882;2024-02-16T12:21:58;14.10;99.90
32476;DHT22;18929;48.008;10.882;2024-02-16T12:24:25;12.90;99.90
32476;DHT22;18929;48.008;10.882;2024-02-16T12:26:52;12.70;99.90
32476;DHT22;18929;48.008;10.882;2024-02-16T12:29:20;12.90;99.90
32476;DHT22;18929;48.008;10.882;2024-02-16T12:31:46;13.10;99.90
32476;DHT22;18929;48.008;10.882;2024-02-16T12:34:15;13.10;99.90
32476;DHT22;18929;48.008;10.882;2024-02-16T12:36:43;14.10;99.90
32476;DHT22;18929;48.008;10.882;2024-02-16T12:39:10;14.10;99.90
32476;DHT22;18929;48.008;10.882;2024-02-16T12:41:37;14.30;99.90
32476;DHT22;18929;48.008;10.882;2024-02-16T12:44:05;12.60;99.90
32476;DHT22;18929;48.008;10.882;2024-02-16T12:46:32;12.40;99.90
32476;DHT22;18929;48.008;10.882;2024-02-16T12:48:59;12.40;99.90
32476;DHT22;18929;48.008;10.882;2024-02-16T12:51:26;12.80;99.90
32476;DHT22;18929;48.008;10.882;2024-02-16T12:53:54;13.00;99.90
32476;DHT22;18929;48.008;10.882;2024-02-16T12:56:21;13.00;99.90
32476;DHT22;18929;48.008;10.882;2024-02-16T12:58:48;12.10;99.90
32476;DHT22;18929;48.008;10.882;2024-02-16T13:01:15;13.20;99.90
32476;DHT22;18929;48.008;10.882;2024-02-16T13:03:43;12.70;99.90
32476;DHT22;18929;48.008;10.882;2024-02-16T13:06:10;13.20;99.90
32476;DHT22;18929;48.008;10.882;2024-02-16T13:08:37;13.50;99.90
32476;DHT22;18929;48.008;10.882;2024-02-16T13:11:06;12.80;99.90
32476;DHT22;18929;48.008;10.882;2024-02-16T13:13:40;13.50;99.90
32476;DHT22;18929;48.008;10.882;2024-02-16T13:16:07;13.10;99.90
32476;DHT22;18929;48.008;10.882;2024-02-16T13:18:34;13.30;99.90
32476;DHT22;18929;48.008;10.882;2024-02-16T13:21:01;13.80;99.90
32476;DHT22;18929;48.008;10.882;2024-02-16T13:23:28;13.60;99.90
32476;DHT22;18929;48.008;10.882;2024-02-16T13:25:56;13.80;99.90
32476;DHT22;18929;48.008;10.882;2024-02-16T13:28:24;14.50;99.90
32476;DHT22;18929;48.008;10.882;2024-02-16T13:30:51;13.80;99.90
32476;DHT22;18929;48.008;10.882;2024-02-16T13:33:18;13.40;99.90
32476;DHT22;18929;48.008;10.882;2024-02-16T13:35:45;13.80;99.90
32476;DHT22;18929;48.008;10.882;2024-02-16T13:38:12;13.70;99.90
32476;DHT22;18929;48.008;10.882;2024-02-16T13:40:39;13.90;99.90
32476;DHT22;18929;48.008;10.882;2024-02-16T13:43:06;13.40;99.90
32476;DHT22;18929;48.008;10.882;2024-02-16T13:45:47;13.90;99.90
32476;DHT22;18929;48.008;10.882;2024-02-16T13:48:14;13.50;99.90
32476;DHT22;18929;48.008;10.882;2024-02-16T13:50:43;13.70;99.90
32476;DHT22;18929;48.008;10.882;2024-02-16T13:53:10;13.80;99.90
32476;DHT22;18929;48.008;10.882;2024-02-16T13:55:36;13.60;99.90
32476;DHT22;18929;48.008;10.882;2024-02-16T13:58:03;13.70;99.90
32476;DHT22;18929;48.008;10.882;2024-02-16T14:00:30;13.60;99.90
32476;DHT22;18929;48.008;10.882;2024-02-16T14:02:58;14.30;99.90
32476;DHT22;18929;48.008;10.882;2024-02-16T14:05:25;14.90;99.90
32476;DHT22;18929;48.008;10.882;2024-02-16T14:07:52;14.60;99.90
32476;DHT22;18929;48.008;10.882;2024-02-16T14:10:19;14.90;99.90
32476;DHT22;18929;48.008;10.882;2024-02-16T14:12:47;14.90;99.90
32476;DHT22;18929;48.008;10.882;2024-02-16T14:15:14;14.30;99.90
32476;DHT22;18929;48.008;10.882;2024-02-16T14:17:41;14.30;99.90
32476;DHT22;18929;48.008;10.882;2024-02-16T14:20:10;14.70;99.90
32476;DHT22;18929;48.008;10.882;2024-02-16T14:22:37;14.20;99.90
32476;DHT22;18929;48.008;10.882;2024-02-16T14:25:04;14.20;99.90
32476;DHT22;18929;48.008;10.882;2024-02-16T14:27:31;13.80;99.90
32476;DHT22;18929;48.008;10.882;2024-02-16T14:29:59;14.10;99.90
32476;DHT22;18929;48.008;10.882;2024-02-16T14:32:26;14.40;99.90
32476;DHT22;18929;48.008;10.882;2024-02-16T14:34:52;14.60;99.90
32476;DHT22;18929;48.008;10.882;2024-02-16T14:37:20;14.60;99.90
32476;DHT22;18929;48.008;10.882;2024-02-16T14:39:47;14.70;99.90
32476;DHT22;18929;48.008;10.882;2024-02-16T14:42:14;14.80;99.90
32476;DHT22;18929;48.008;10.882;2024-02-16T14:44:41;14.80;99.90
32476;DHT22;18929;48.008;10.882;2024-02-16T14:47:08;14.50;99.90
32476;DHT22;18929;48.008;10.882;2024-02-16T14:49:35;14.40;99.90
32476;DHT22;18929;48.008;10.882;2024-02-16T14:52:02;14.20;99.90
32476;DHT22;18929;48.008;10.882;2024-02-16T14:54:32;14.20;99.90
32476;DHT22;18929;48.008;10.882;2024-02-16T14:56:59;14.10;99.90
32476;DHT22;18929;48.008;10.882;2024-02-16T14:59:26;14.30;99.90
32476;DHT22;18929;48.008;10.882;2024-02-16T15:01:54;14.60;99.90
32476;DHT22;18929;48.008;10.882;2024-02-16T15:04:21;14.70;99.90
32476;DHT22;18929;48.008;10.882;2024-02-16T15:06:48;14.60;99.90
32476;DHT22;18929;48.008;10.882;2024-02-16T15:09:15;14.50;99.90
32476;DHT22;18929;48.008;10.882;2024-02-16T15:11:43;13.60;99.90
32476;DHT22;18929;48.008;10.882;2024-02-16T15:14:10;13.50;99.90
32476;DHT22;18929;48.008;10.882;2024-02-16T15:16:38;13.80;99.90
32476;DHT22;18929;48.008;10.882;2024-02-16T15:19:05;13.50;99.90
32476;DHT22;18929;48.008;10.882;2024-02-16T15:21:32;13.90;99.90
32476;DHT22;18929;48.008;10.882;2024-02-16T15:23:59;14.10;99.90
32476;DHT22;18929;48.008;10.882;2024-02-16T15:26:26;14.00;99.90
32476;DHT22;18929;48.008;10.882;2024-02-16T15:28:55;14.30;99.90
32476;DHT22;18929;48.008;10.882;2024-02-16T15:31:26;14.30;99.90
32476;DHT22;18929;48.008;10.882;2024-02-16T15:33:53;14.20;99.90
32476;DHT22;18929;48.008;10.882;2024-02-16T15:36:20;14.60;99.90
32476;DHT22;18929;48.008;10.882;2024-02-16T15:38:48;14.50;99.90
32476;DHT22;18929;48.008;10.882;2024-02-16T15:41:16;14.00;99.90